Time;durP1;ratioP1;P1;durP2;ratioP2;P2;SDS_P1;SDS_P2;PMS_P1;PMS_P2;Temp;Humidity;BMP_temperature;BMP_pressure;BME280_temperature;BME280_humidity;BME280_pressure;Samples;Min_cycle;Max_cycle;Signal;HPM_P1;HPM_P2
2022/10/10 00:02:11;;;;;;;7.38;3.33;;;;;;;;;;4905983;29;20034;-83
2022/10/10 00:04:37;;;;;;;4.72;3.22;;;;;;;;;;4925458;29;20460;-84
2022/10/10 00:07:03;;;;;;;4.45;2.80;;;;;;;;;;4923913;29;20031;-84
2022/10/10 00:09:28;;;;;;;6.03;3.20;;;;;;;;;;4931665;29;20032;-83
2022/10/10 00:11:54;;;;;;;4.82;2.90;;;;;;;;;;4915409;29;20675;-84
2022/10/10 00:14:19;;;;;;;4.95;3.38;;;;;;;;;;4908601;29;20083;-83
2022/10/10 00:16:45;;;;;;;6.22;3.20;;;;;;;;;;4910564;29;20042;-83
2022/10/10 00:19:10;;;;;;;5.15;3.47;;;;;;;;;;4925128;29;20051;-84
2022/10/10 00:21:35;;;;;;;5.88;3.38;;;;;;;;;;4929630;29;20027;-83
2022/10/10 00:24:01;;;;;;;7.60;3.25;;;;;;;;;;4907020;29;20038;-83
2022/10/10 00:26:26;;;;;;;5.40;3.58;;;;;;;;;;4920821;29;20043;-83
2022/10/10 00:28:52;;;;;;;7.20;3.40;;;;;;;;;;4921193;29;20039;-83
2022/10/10 00:31:17;;;;;;;5.78;3.50;;;;;;;;;;4913763;29;20031;-83
2022/10/10 00:33:43;;;;;;;5.70;3.17;;;;;;;;;;4910059;29;20035;-83
2022/10/10 00:36:09;;;;;;;5.75;3.00;;;;;;;;;;4931290;29;20028;-83
2022/10/10 00:38:34;;;;;;;7.05;3.80;;;;;;;;;;4915691;29;20047;-83
2022/10/10 00:41:01;;;;;;;6.72;3.35;;;;;;;;;;4936027;29;20510;-83
2022/10/10 00:43:27;;;;;;;5.57;3.47;;;;;;;;;;4929605;28;20114;-84
2022/10/10 00:45:53;;;;;;;6.78;3.20;;;;;;;;;;4930320;28;20391;-83
2022/10/10 00:48:25;;;;;;;6.07;3.67;;;;;;;;;;4945277;28;20098;-84
2022/10/10 00:51:00;;;;;;;5.13;3.20;;;;;;;;;;4952704;28;20438;-83
2022/10/10 00:53:33;;;;;;;7.28;3.55;;;;;;;;;;4948372;28;20062;-83
2022/10/10 00:55:58;;;;;;;;;;;;;;;;;;4941582;28;21109;-84
2022/10/10 00:58:24;;;;;;;6.88;3.20;;;;;;;;;;4928771;28;19937;-83
2022/10/10 01:00:50;;;;;;;6.60;3.40;;;;;;;;;;4924058;28;20086;-84
2022/10/10 01:03:16;;;;;;;5.55;3.20;;;;;;;;;;4928319;28;20146;-83
2022/10/10 01:05:42;;;;;;;4.90;3.10;;;;;;;;;;4942251;28;20031;-83
2022/10/10 01:08:08;;;;;;;5.47;3.45;;;;;;;;;;4926707;28;20118;-83
2022/10/10 01:10:54;;;;;;;5.65;3.60;;;;;;;;;;4949230;28;20483;-84
2022/10/10 01:13:34;;;;;;;6.22;3.38;;;;;;;;;;4932974;28;20874;-84
2022/10/10 01:16:23;;;;;;;6.85;3.50;;;;;;;;;;4944575;28;20031;-83
2022/10/10 01:19:22;;;;;;;6.28;3.50;;;;;;;;;;4946320;28;20585;-83
2022/10/10 01:22:25;;;;;;;6.07;3.50;;;;;;;;;;4928933;28;20038;-83
2022/10/10 01:25:02;;;;;;;5.97;3.78;;;;;;;;;;4930412;28;20159;-83
2022/10/10 01:27:37;;;;;;;6.13;3.42;;;;;;;;;;4948129;28;20047;-83
2022/10/10 01:30:07;;;;;;;6.13;3.60;;;;;;;;;;4935616;28;20027;-84
2022/10/10 01:32:32;;;;;;;5.85;3.80;;;;;;;;;;4948950;28;20062;-83
2022/10/10 01:35:16;;;;;;;5.38;3.47;;;;;;;;;;4946790;28;20542;-83
2022/10/10 01:37:51;;;;;;;5.38;3.53;;;;;;;;;;4949197;28;20039;-83
2022/10/10 01:40:50;;;;;;;5.45;3.33;;;;;;;;;;4928632;29;20034;-83
2022/10/10 01:43:16;;;;;;;7.35;3.67;;;;;;;;;;4942499;28;20074;-83
2022/10/10 01:45:47;;;;;;;5.28;3.40;;;;;;;;;;4940084;28;20030;-84
2022/10/10 01:48:16;;;;;;;7.65;3.97;;;;;;;;;;4930760;28;20039;-83
2022/10/10 01:51:03;;;;;;;8.20;3.80;;;;;;;;;;4946237;28;20118;-83
2022/10/10 01:53:44;;;;;;;5.97;3.75;;;;;;;;;;4945129;28;20039;-83
2022/10/10 01:56:22;;;;;;;7.63;3.97;;;;;;;;;;4928840;28;20037;-84
2022/10/10 01:59:17;;;;;;;5.68;3.38;;;;;;;;;;4949583;28;20031;-83
2022/10/10 02:01:53;;;;;;;6.88;3.33;;;;;;;;;;4945479;28;20033;-83
2022/10/10 02:04:45;;;;;;;4.63;3.50;;;;;;;;;;4925929;28;20062;-83
2022/10/10 02:07:21;;;;;;;5.63;3.60;;;;;;;;;;4926574;29;20058;-83
2022/10/10 02:09:49;;;;;;;7.57;3.88;;;;;;;;;;4945143;28;20023;-83
2022/10/10 02:12:16;;;;;;;6.40;3.67;;;;;;;;;;4942165;28;20027;-83
2022/10/10 02:14:51;;;;;;;5.72;3.72;;;;;;;;;;4946031;28;20074;-83
2022/10/10 02:17:17;;;;;;;4.95;3.20;;;;;;;;;;4948456;28;20077;-83
2022/10/10 02:19:51;;;;;;;6.53;4.03;;;;;;;;;;4928862;28;20099;-83
2022/10/10 02:22:18;;;;;;;6.22;3.75;;;;;;;;;;4951441;28;20038;-83
2022/10/10 02:24:43;;;;;;;7.53;4.20;;;;;;;;;;4943447;28;20023;-83
2022/10/10 02:27:15;;;;;;;5.40;3.75;;;;;;;;;;4932911;28;20395;-83
2022/10/10 02:29:42;;;;;;;6.35;3.45;;;;;;;;;;4931435;28;20027;-83
2022/10/10 02:32:17;;;;;;;5.78;3.80;;;;;;;;;;4945361;28;20093;-83
2022/10/10 02:34:47;;;;;;;6.88;3.67;;;;;;;;;;4948112;28;20165;-83
2022/10/10 02:37:14;;;;;;;5.40;3.90;;;;;;;;;;4929141;28;20082;-83
2022/10/10 02:39:43;;;;;;;7.22;3.78;;;;;;;;;;4922849;28;20089;-84
2022/10/10 02:42:11;;;;;;;6.50;3.78;;;;;;;;;;4949589;28;20514;-83
2022/10/10 02:44:38;;;;;;;6.55;3.85;;;;;;;;;;4951707;28;20031;-83
2022/10/10 02:47:04;;;;;;;5.55;3.67;;;;;;;;;;4930300;29;20126;-83
2022/10/10 02:49:32;;;;;;;7.18;4.07;;;;;;;;;;4937326;28;20121;-83
2022/10/10 02:51:58;;;;;;;5.47;3.53;;;;;;;;;;4944126;28;20089;-84
2022/10/10 02:54:23;;;;;;;6.47;3.88;;;;;;;;;;4944629;28;20023;-83
2022/10/10 02:56:49;;;;;;;8.02;3.88;;;;;;;;;;4935058;28;20117;-83
2022/10/10 02:59:15;;;;;;;6.38;4.25;;;;;;;;;;4944741;28;20031;-83
2022/10/10 03:01:40;;;;;;;6.00;3.90;;;;;;;;;;4932438;29;20031;-83
2022/10/10 03:04:05;;;;;;;5.90;3.78;;;;;;;;;;4929709;28;20122;-83
2022/10/10 03:06:31;;;;;;;5.47;3.58;;;;;;;;;;4968988;28;20030;-84
2022/10/10 03:08:56;;;;;;;5.90;3.60;;;;;;;;;;4934901;28;20031;-83
2022/10/10 03:11:21;;;;;;;7.07;4.13;;;;;;;;;;4930414;28;20031;-83
2022/10/10 03:13:47;;;;;;;6.20;3.83;;;;;;;;;;4933356;28;20083;-83
2022/10/10 03:16:12;;;;;;;6.40;3.55;;;;;;;;;;4930824;28;20034;-84
2022/10/10 03:18:38;;;;;;;4.90;3.50;;;;;;;;;;4945949;28;20547;-83
2022/10/10 03:21:03;;;;;;;7.53;3.90;;;;;;;;;;4936648;28;20421;-83
2022/10/10 03:23:29;;;;;;;8.55;4.35;;;;;;;;;;4944061;28;20035;-83
2022/10/10 03:25:54;;;;;;;8.45;3.95;;;;;;;;;;4950636;28;20435;-84
2022/10/10 03:28:20;;;;;;;8.38;4.50;;;;;;;;;;4924308;28;20395;-84
2022/10/10 03:30:46;;;;;;;5.68;3.63;;;;;;;;;;4924491;28;20031;-83
2022/10/10 03:33:11;;;;;;;5.82;3.88;;;;;;;;;;4940873;28;20031;-83
2022/10/10 03:35:37;;;;;;;6.70;3.83;;;;;;;;;;4925384;28;20039;-84
2022/10/10 03:38:03;;;;;;;7.43;3.63;;;;;;;;;;4942108;28;20027;-83
2022/10/10 03:40:29;;;;;;;6.72;3.90;;;;;;;;;;4924368;28;20031;-83
2022/10/10 03:42:55;;;;;;;6.53;3.88;;;;;;;;;;4943026;28;20230;-83
2022/10/10 03:45:20;;;;;;;5.80;3.90;;;;;;;;;;4935915;28;20037;-83
2022/10/10 03:47:46;;;;;;;6.60;3.75;;;;;;;;;;4943490;28;20027;-83
2022/10/10 03:50:11;;;;;;;6.35;3.40;;;;;;;;;;4919207;28;20043;-84
2022/10/10 03:52:37;;;;;;;6.90;3.90;;;;;;;;;;4924441;28;20073;-83
2022/10/10 03:55:03;;;;;;;6.43;3.90;;;;;;;;;;4941124;28;20023;-84
2022/10/10 03:57:28;;;;;;;5.80;3.72;;;;;;;;;;4922801;28;20165;-83
2022/10/10 03:59:53;;;;;;;7.13;3.90;;;;;;;;;;4925845;28;20391;-83
2022/10/10 04:02:19;;;;;;;5.95;3.92;;;;;;;;;;4937636;28;20645;-83
2022/10/10 04:04:44;;;;;;;6.60;3.80;;;;;;;;;;4941610;28;20035;-83
2022/10/10 04:07:10;;;;;;;7.18;3.85;;;;;;;;;;4938605;28;20037;-83
2022/10/10 04:09:35;;;;;;;6.70;4.00;;;;;;;;;;4925073;28;20028;-83
2022/10/10 04:12:01;;;;;;;5.20;3.88;;;;;;;;;;4930494;28;20027;-83
2022/10/10 04:14:26;;;;;;;8.85;4.25;;;;;;;;;;4947286;28;20114;-83
2022/10/10 04:16:52;;;;;;;6.40;4.10;;;;;;;;;;4924421;28;20118;-83
2022/10/10 04:19:18;;;;;;;6.40;3.90;;;;;;;;;;4947574;28;20027;-83
2022/10/10 04:21:43;;;;;;;7.85;3.97;;;;;;;;;;4928086;28;20046;-83
2022/10/10 04:24:09;;;;;;;8.10;4.25;;;;;;;;;;4945540;28;20036;-83
2022/10/10 04:26:35;;;;;;;6.88;4.18;;;;;;;;;;4939778;28;20041;-83
2022/10/10 04:29:00;;;;;;;7.55;4.15;;;;;;;;;;4922721;28;20490;-84
2022/10/10 04:31:26;;;;;;;6.70;4.20;;;;;;;;;;4924962;28;20031;-84
2022/10/10 04:33:51;;;;;;;8.32;3.70;;;;;;;;;;4945153;28;20042;-83
2022/10/10 04:36:17;;;;;;;8.52;4.30;;;;;;;;;;4945149;28;20042;-83
2022/10/10 04:38:42;;;;;;;6.20;3.90;;;;;;;;;;4942736;28;20039;-83
2022/10/10 04:41:08;;;;;;;7.45;3.95;;;;;;;;;;4927608;28;20039;-83
2022/10/10 04:43:33;;;;;;;7.93;3.85;;;;;;;;;;4947288;28;20050;-83
2022/10/10 04:45:58;;;;;;;7.28;3.88;;;;;;;;;;4927011;28;20027;-83
2022/10/10 04:48:24;;;;;;;7.20;4.10;;;;;;;;;;4929471;28;20042;-83
2022/10/10 04:50:51;;;;;;;5.70;3.95;;;;;;;;;;4952276;28;20410;-84
2022/10/10 04:53:17;;;;;;;7.65;3.80;;;;;;;;;;4945373;28;20023;-83
2022/10/10 04:55:42;;;;;;;7.10;4.07;;;;;;;;;;4929084;28;20498;-83
2022/10/10 04:58:08;;;;;;;6.78;3.58;;;;;;;;;;4942530;28;20030;-83
2022/10/10 05:00:33;;;;;;;7.47;4.25;;;;;;;;;;4941894;28;20035;-83
2022/10/10 05:02:59;;;;;;;7.72;3.65;;;;;;;;;;4929549;28;20034;-83
2022/10/10 05:05:24;;;;;;;7.75;3.88;;;;;;;;;;4931153;28;20042;-83
2022/10/10 05:07:50;;;;;;;7.55;4.00;;;;;;;;;;4931901;28;20027;-83
2022/10/10 05:10:15;;;;;;;7.95;3.85;;;;;;;;;;4936834;28;20150;-84
2022/10/10 05:12:41;;;;;;;6.38;3.70;;;;;;;;;;4954356;28;20094;-84
2022/10/10 05:15:06;;;;;;;6.72;3.88;;;;;;;;;;4932900;29;20139;-84
2022/10/10 05:17:35;;;;;;;7.60;3.85;;;;;;;;;;4935323;28;20418;-83
2022/10/10 05:20:01;;;;;;;5.40;3.67;;;;;;;;;;4936400;29;20121;-83
2022/10/10 05:22:26;;;;;;;6.47;3.83;;;;;;;;;;4935525;29;20174;-84
2022/10/10 05:24:51;;;;;;;6.35;3.72;;;;;;;;;;4948415;28;20030;-83
2022/10/10 05:27:17;;;;;;;6.68;3.75;;;;;;;;;;4933010;29;20035;-83
2022/10/10 05:29:42;;;;;;;6.20;3.72;;;;;;;;;;4931705;28;20034;-83
2022/10/10 05:32:08;;;;;;;5.95;3.85;;;;;;;;;;4934519;28;20472;-84
2022/10/10 05:34:33;;;;;;;9.32;3.83;;;;;;;;;;4935325;28;20030;-83
2022/10/10 05:36:59;;;;;;;7.40;4.20;;;;;;;;;;4937728;28;20155;-83
2022/10/10 05:39:24;;;;;;;9.35;3.65;;;;;;;;;;4954931;28;20386;-84
2022/10/10 05:41:49;;;;;;;8.60;4.38;;;;;;;;;;4958249;28;20023;-83
2022/10/10 05:44:15;;;;;;;6.18;3.25;;;;;;;;;;4939780;28;20121;-83
2022/10/10 05:46:43;;;;;;;7.35;3.80;;;;;;;;;;4944037;29;20093;-84
2022/10/10 05:49:08;;;;;;;5.35;3.55;;;;;;;;;;4933823;29;20452;-83
2022/10/10 05:51:33;;;;;;;6.78;3.95;;;;;;;;;;4938613;28;20062;-83
2022/10/10 05:53:59;;;;;;;6.18;3.63;;;;;;;;;;4936433;28;20024;-84
2022/10/10 05:56:24;;;;;;;7.28;3.80;;;;;;;;;;4935342;28;20027;-83
2022/10/10 05:58:50;;;;;;;6.95;3.75;;;;;;;;;;4942552;29;20122;-83
2022/10/10 06:01:16;;;;;;;8.35;4.03;;;;;;;;;;4952145;28;20067;-84
2022/10/10 06:03:44;;;;;;;7.15;3.47;;;;;;;;;;4953720;28;20062;-84
2022/10/10 06:06:09;;;;;;;5.97;3.35;;;;;;;;;;4955612;28;20110;-84
2022/10/10 06:08:35;;;;;;;7.30;3.80;;;;;;;;;;4932893;29;20563;-84
2022/10/10 06:11:09;;;;;;;6.53;3.63;;;;;;;;;;4933297;29;20023;-84
2022/10/10 06:13:36;;;;;;;6.47;3.55;;;;;;;;;;4938749;28;20476;-83
2022/10/10 06:16:02;;;;;;;6.80;3.78;;;;;;;;;;4955813;28;20031;-84
2022/10/10 06:18:27;;;;;;;7.22;3.72;;;;;;;;;;4935562;29;20038;-83
2022/10/10 06:20:53;;;;;;;7.72;3.88;;;;;;;;;;4937569;29;20118;-83
2022/10/10 06:23:19;;;;;;;6.97;3.83;;;;;;;;;;4963331;28;20027;-84
2022/10/10 06:25:50;;;;;;;6.90;3.88;;;;;;;;;;4935744;29;20556;-83
2022/10/10 06:28:15;;;;;;;6.00;3.60;;;;;;;;;;4929971;29;20110;-83
2022/10/10 06:30:42;;;;;;;5.90;3.53;;;;;;;;;;4970933;28;20122;-83
2022/10/10 06:33:09;;;;;;;5.47;3.60;;;;;;;;;;4955773;28;20064;-84
2022/10/10 06:35:39;;;;;;;7.00;3.63;;;;;;;;;;4953558;28;20027;-84
2022/10/10 06:38:04;;;;;;;6.40;3.40;;;;;;;;;;4934446;29;20035;-83
2022/10/10 06:40:30;;;;;;;6.60;3.40;;;;;;;;;;4933407;28;20530;-83
2022/10/10 06:42:55;;;;;;;6.93;3.42;;;;;;;;;;4926589;29;20044;-84
2022/10/10 06:45:20;;;;;;;6.55;3.55;;;;;;;;;;4936557;29;20028;-84
2022/10/10 06:47:46;;;;;;;6.03;3.70;;;;;;;;;;4931892;29;20046;-84
2022/10/10 06:50:11;;;;;;;6.40;3.90;;;;;;;;;;4935770;29;20377;-84
2022/10/10 06:52:36;;;;;;;6.38;3.33;;;;;;;;;;4922765;29;20027;-83
2022/10/10 06:55:02;;;;;;;5.53;3.55;;;;;;;;;;4943261;29;20023;-84
2022/10/10 06:57:27;;;;;;;7.20;3.58;;;;;;;;;;4939400;29;20038;-84
2022/10/10 06:59:53;;;;;;;5.95;3.25;;;;;;;;;;4917222;29;20023;-84
2022/10/10 07:02:18;;;;;;;7.40;3.58;;;;;;;;;;4921634;29;20503;-83
2022/10/10 07:04:44;;;;;;;5.85;3.33;;;;;;;;;;4921618;29;20028;-84
2022/10/10 07:07:09;;;;;;;5.95;3.78;;;;;;;;;;4936629;29;20039;-84
2022/10/10 07:09:35;;;;;;;5.40;3.88;;;;;;;;;;4933619;29;20369;-83
2022/10/10 07:12:00;;;;;;;8.20;3.67;;;;;;;;;;4934667;29;20024;-84
2022/10/10 07:14:25;;;;;;;5.63;3.60;;;;;;;;;;4923265;29;20031;-83
2022/10/10 07:16:51;;;;;;;6.60;3.60;;;;;;;;;;4932673;29;20023;-84
2022/10/10 07:19:17;;;;;;;7.57;3.60;;;;;;;;;;4922128;29;20535;-84
2022/10/10 07:21:43;;;;;;;6.03;3.38;;;;;;;;;;4935526;29;20032;-84
2022/10/10 07:24:08;;;;;;;6.85;3.95;;;;;;;;;;4940053;29;20572;-84
2022/10/10 07:26:37;;;;;;;6.65;3.40;;;;;;;;;;4935988;29;20043;-84
2022/10/10 07:29:03;;;;;;;7.20;3.63;;;;;;;;;;4925438;29;20391;-84
2022/10/10 07:31:29;;;;;;;8.25;3.85;;;;;;;;;;4927734;29;20503;-83
2022/10/10 07:33:54;;;;;;;7.82;3.90;;;;;;;;;;4918324;29;20020;-84
2022/10/10 07:36:19;;;;;;;6.15;3.65;;;;;;;;;;4933870;29;20024;-83
2022/10/10 07:38:50;;;;;;;7.75;3.85;;;;;;;;;;4908315;29;20074;-83
2022/10/10 07:41:16;;;;;;;5.32;3.53;;;;;;;;;;4916759;29;20179;-83
2022/10/10 07:43:42;;;;;;;7.38;3.92;;;;;;;;;;4925810;28;20047;-83
2022/10/10 07:46:15;;;;;;;6.50;3.42;;;;;;;;;;4936200;28;20106;-84
2022/10/10 07:48:40;;;;;;;;;;;;;;;;;;4949524;28;20034;-83
2022/10/10 07:51:06;;;;;;;8.07;4.05;;;;;;;;;;4947397;28;19921;-83
2022/10/10 07:53:32;;;;;;;8.48;4.03;;;;;;;;;;4933087;28;20050;-83
2022/10/10 07:55:57;;;;;;;6.88;4.03;;;;;;;;;;4934684;28;20480;-83
2022/10/10 07:58:22;;;;;;;7.03;3.47;;;;;;;;;;4929062;28;20067;-83
2022/10/10 08:00:48;;;;;;;6.90;3.83;;;;;;;;;;4930588;28;20023;-83
2022/10/10 08:03:13;;;;;;;6.95;3.47;;;;;;;;;;4940689;28;20027;-83
2022/10/10 08:05:40;;;;;;;8.27;4.22;;;;;;;;;;4932604;28;20027;-84
2022/10/10 08:08:05;;;;;;;6.65;4.28;;;;;;;;;;4934817;28;20043;-83
2022/10/10 08:10:31;;;;;;;7.47;4.28;;;;;;;;;;4955163;28;20551;-83
2022/10/10 08:12:56;;;;;;;8.38;4.10;;;;;;;;;;4952303;28;20035;-83
2022/10/10 08:15:21;;;;;;;6.28;4.00;;;;;;;;;;4937502;29;20571;-83
2022/10/10 08:17:47;;;;;;;6.18;3.83;;;;;;;;;;4930657;29;20023;-83
2022/10/10 08:20:12;;;;;;;6.53;3.83;;;;;;;;;;4964060;28;20110;-84
2022/10/10 08:22:38;;;;;;;8.85;4.10;;;;;;;;;;4935592;29;20372;-84
2022/10/10 08:25:04;;;;;;;7.53;3.83;;;;;;;;;;4939062;29;20031;-84
2022/10/10 08:27:30;;;;;;;9.32;4.18;;;;;;;;;;4926123;29;20027;-84
2022/10/10 08:29:55;;;;;;;7.40;4.15;;;;;;;;;;4936225;28;20097;-83
2022/10/10 08:32:21;;;;;;;7.18;3.72;;;;;;;;;;4961213;28;20038;-84
2022/10/10 08:34:46;;;;;;;7.60;4.07;;;;;;;;;;4938986;28;20026;-83
2022/10/10 08:37:11;;;;;;;7.05;4.13;;;;;;;;;;4941946;29;20023;-83
2022/10/10 08:39:37;;;;;;;9.35;4.50;;;;;;;;;;4935061;29;20446;-83
2022/10/10 08:42:02;;;;;;;7.85;4.45;;;;;;;;;;4948844;28;20031;-84
2022/10/10 08:44:47;;;;;;;9.85;4.57;;;;;;;;;;4951169;28;20039;-83
2022/10/10 08:47:40;;;;;;;8.30;4.45;;;;;;;;;;4944677;29;20448;-83
2022/10/10 08:50:15;;;;;;;9.00;4.15;;;;;;;;;;4951529;29;20037;-84
2022/10/10 08:52:49;;;;;;;8.50;4.22;;;;;;;;;;4946538;29;20027;-83
2022/10/10 08:55:23;;;;;;;8.82;4.25;;;;;;;;;;4957026;28;20019;-83
2022/10/10 08:58:08;;;;;;;7.45;4.53;;;;;;;;;;4938926;29;20023;-83
2022/10/10 09:00:42;;;;;;;11.90;4.78;;;;;;;;;;4942373;28;20043;-83
2022/10/10 09:03:25;;;;;;;7.32;4.15;;;;;;;;;;4937349;29;20062;-83
2022/10/10 09:06:10;;;;;;;7.85;4.68;;;;;;;;;;4951812;28;20027;-84
2022/10/10 09:08:53;;;;;;;7.45;4.90;;;;;;;;;;4950270;28;20035;-84
2022/10/10 09:11:30;;;;;;;7.38;4.63;;;;;;;;;;4938789;29;20027;-84
2022/10/10 09:14:11;;;;;;;8.05;4.20;;;;;;;;;;4971240;28;20027;-83
2022/10/10 09:16:54;;;;;;;7.65;4.30;;;;;;;;;;4959996;28;20039;-83
2022/10/10 09:19:23;;;;;;;8.43;4.65;;;;;;;;;;4945109;28;20053;-84
2022/10/10 09:21:54;;;;;;;8.70;4.50;;;;;;;;;;4950709;28;20431;-83
2022/10/10 09:24:31;;;;;;;7.28;4.55;;;;;;;;;;4938381;29;20031;-83
2022/10/10 09:27:03;;;;;;;6.53;4.13;;;;;;;;;;4942533;29;20031;-83
2022/10/10 09:29:48;;;;;;;7.47;4.82;;;;;;;;;;4944099;29;20031;-84
2022/10/10 09:32:23;;;;;;;7.63;4.65;;;;;;;;;;4937274;29;20032;-84
2022/10/10 09:34:59;;;;;;;7.10;4.43;;;;;;;;;;4956317;28;20038;-84
2022/10/10 09:37:32;;;;;;;6.95;4.22;;;;;;;;;;4954226;28;20031;-84
2022/10/10 09:40:05;;;;;;;10.20;4.45;;;;;;;;;;4962476;28;20047;-84
2022/10/10 09:42:35;;;;;;;6.63;4.05;;;;;;;;;;4951419;29;20046;-83
2022/10/10 09:45:02;;;;;;;8.15;4.72;;;;;;;;;;4957019;28;20415;-84
2022/10/10 09:47:28;;;;;;;9.00;4.20;;;;;;;;;;4935569;29;20062;-84
2022/10/10 09:49:53;;;;;;;7.43;4.60;;;;;;;;;;4934725;29;20069;-84
2022/10/10 09:52:19;;;;;;;7.75;4.47;;;;;;;;;;4939290;29;20027;-84
2022/10/10 09:54:46;;;;;;;8.35;4.28;;;;;;;;;;4943602;29;20027;-84
2022/10/10 09:57:14;;;;;;;7.20;4.70;;;;;;;;;;4939118;29;20038;-84
2022/10/10 09:59:45;;;;;;;6.68;4.25;;;;;;;;;;4956657;28;20085;-84
2022/10/10 10:02:18;;;;;;;7.72;4.32;;;;;;;;;;4935840;29;20026;-84
2022/10/10 10:04:44;;;;;;;;;;;;;;;;;;4947372;29;20035;-83
2022/10/10 10:07:31;;;;;;;6.93;3.55;;;;;;;;;;4950659;28;20028;-84
2022/10/10 10:10:24;;;;;;;7.38;3.88;;;;;;;;;;4952672;28;20494;-84
2022/10/10 10:12:51;;;;;;;10.40;3.92;;;;;;;;;;4943354;28;20457;-84
2022/10/10 10:15:30;;;;;;;8.02;3.85;;;;;;;;;;4943303;29;20078;-83
2022/10/10 10:18:15;;;;;;;6.47;3.88;;;;;;;;;;4938910;29;20027;-84
2022/10/10 10:20:47;;;;;;;9.88;3.83;;;;;;;;;;4938113;29;20035;-84
2022/10/10 10:23:30;;;;;;;7.97;4.05;;;;;;;;;;4947088;28;20031;-84
2022/10/10 10:26:02;;;;;;;7.88;4.40;;;;;;;;;;4949658;28;20032;-84
2022/10/10 10:28:28;;;;;;;9.55;4.10;;;;;;;;;;4955103;28;20050;-84
2022/10/10 10:30:56;;;;;;;7.38;3.78;;;;;;;;;;4966659;28;20491;-84
2022/10/10 10:33:46;;;;;;;7.28;3.88;;;;;;;;;;4937182;28;20032;-84
2022/10/10 10:36:20;;;;;;;6.55;4.07;;;;;;;;;;4951657;28;20027;-84
2022/10/10 10:39:09;;;;;;;6.72;4.07;;;;;;;;;;4938202;29;20031;-84
2022/10/10 10:41:55;;;;;;;8.20;4.20;;;;;;;;;;4937985;28;20488;-84
2022/10/10 10:44:58;;;;;;;8.85;4.43;;;;;;;;;;4935756;29;20511;-84
2022/10/10 10:48:03;;;;;;;8.85;4.63;;;;;;;;;;4917670;29;20093;-84
2022/10/10 10:50:43;;;;;;;9.45;4.07;;;;;;;;;;4927758;28;20039;-84
2022/10/10 10:53:23;;;;;;;9.02;3.83;;;;;;;;;;4934387;29;20039;-84
2022/10/10 10:56:34;;;;;;;6.35;3.90;;;;;;;;;;4936046;29;20024;-84
2022/10/10 10:59:10;;;;;;;7.30;3.95;;;;;;;;;;4935898;29;20098;-84
2022/10/10 11:01:46;;;;;;;8.02;3.65;;;;;;;;;;4955995;28;20027;-83
2022/10/10 11:04:36;;;;;;;7.45;3.90;;;;;;;;;;4950669;28;20391;-83
2022/10/10 11:07:16;;;;;;;10.07;4.68;;;;;;;;;;4935076;28;20034;-83
2022/10/10 11:09:51;;;;;;;9.43;4.07;;;;;;;;;;4945274;28;20036;-83
2022/10/10 11:12:41;;;;;;;7.85;4.50;;;;;;;;;;4930087;28;20023;-83
2022/10/10 11:15:34;;;;;;;8.27;4.85;;;;;;;;;;4951766;28;20031;-83
2022/10/10 11:18:09;;;;;;;8.18;4.07;;;;;;;;;;4947354;28;20031;-83
2022/10/10 11:20:35;;;;;;;9.93;4.68;;;;;;;;;;4935580;28;20502;-83
2022/10/10 11:23:11;;;;;;;8.05;4.13;;;;;;;;;;4947509;28;20027;-83
2022/10/10 11:25:48;;;;;;;7.38;4.30;;;;;;;;;;4952681;28;20046;-83
2022/10/10 11:28:34;;;;;;;8.10;4.10;;;;;;;;;;4952222;28;20035;-83
2022/10/10 11:31:10;;;;;;;7.45;3.88;;;;;;;;;;4951081;28;20038;-83
2022/10/10 11:33:40;;;;;;;8.02;4.32;;;;;;;;;;4950256;28;20061;-83
2022/10/10 11:36:23;;;;;;;8.80;3.70;;;;;;;;;;4953653;28;20399;-83
2022/10/10 11:39:12;;;;;;;8.07;3.72;;;;;;;;;;4948360;28;20058;-83
2022/10/10 11:41:49;;;;;;;7.68;3.72;;;;;;;;;;4924490;28;20078;-83
2022/10/10 11:44:31;;;;;;;7.63;3.97;;;;;;;;;;4930109;28;20547;-83
2022/10/10 11:47:06;;;;;;;9.60;3.80;;;;;;;;;;4932768;29;20523;-83
2022/10/10 11:49:56;;;;;;;9.52;3.90;;;;;;;;;;4914972;29;20023;-83
2022/10/10 11:52:26;;;;;;;6.35;3.72;;;;;;;;;;4924257;29;20083;-83
2022/10/10 11:54:58;;;;;;;7.15;3.72;;;;;;;;;;4910766;29;20034;-83
2022/10/10 11:57:32;;;;;;;6.63;3.40;;;;;;;;;;4912637;29;20023;-83
2022/10/10 12:00:05;;;;;;;5.47;3.50;;;;;;;;;;4929715;29;20019;-83
2022/10/10 12:02:36;;;;;;;11.30;4.30;;;;;;;;;;4923398;29;20111;-83
2022/10/10 12:05:04;;;;;;;7.45;3.72;;;;;;;;;;4932224;29;20032;-83
2022/10/10 12:07:45;;;;;;;7.75;3.45;;;;;;;;;;4926196;29;20484;-83
2022/10/10 12:10:53;;;;;;;9.70;3.38;;;;;;;;;;4926983;29;20107;-83
2022/10/10 12:13:30;;;;;;;8.20;3.78;;;;;;;;;;4907313;29;20043;-83
2022/10/10 12:15:59;;;;;;;6.93;3.65;;;;;;;;;;4931927;29;20019;-84
2022/10/10 12:18:38;;;;;;;8.60;4.18;;;;;;;;;;4914543;29;20095;-83
2022/10/10 12:21:15;;;;;;;6.93;3.75;;;;;;;;;;4907382;29;20035;-83
2022/10/10 12:24:04;;;;;;;9.50;4.15;;;;;;;;;;4925400;29;20585;-84
2022/10/10 12:26:53;;;;;;;6.97;4.13;;;;;;;;;;4913458;29;20122;-84
2022/10/10 12:29:46;;;;;;;9.50;4.50;;;;;;;;;;4925047;29;20035;-83
2022/10/10 12:32:16;;;;;;;9.05;4.45;;;;;;;;;;4928493;29;20107;-84
2022/10/10 12:34:47;;;;;;;9.05;4.68;;;;;;;;;;4924982;29;20441;-83
2022/10/10 12:37:46;;;;;;;9.85;4.63;;;;;;;;;;4926034;29;20040;-83
2022/10/10 12:40:16;;;;;;;7.43;4.70;;;;;;;;;;4911324;29;20034;-83
2022/10/10 12:42:47;;;;;;;9.25;4.70;;;;;;;;;;4930670;28;20134;-84
2022/10/10 12:45:28;;;;;;;10.02;5.50;;;;;;;;;;4943942;28;20380;-84
2022/10/10 12:47:58;;;;;;;7.38;4.80;;;;;;;;;;4949210;28;20023;-84
2022/10/10 12:50:33;;;;;;;9.70;4.65;;;;;;;;;;4935510;28;20032;-84
2022/10/10 12:53:15;;;;;;;9.57;4.70;;;;;;;;;;4948239;28;20030;-84
2022/10/10 12:55:47;;;;;;;8.00;4.70;;;;;;;;;;4940727;28;20118;-84
2022/10/10 12:58:22;;;;;;;10.88;4.85;;;;;;;;;;4930265;29;20895;-84
2022/10/10 13:00:48;;;;;;;10.25;4.70;;;;;;;;;;4945406;28;20027;-84
2022/10/10 13:03:33;;;;;;;10.48;4.80;;;;;;;;;;4943547;28;20040;-84
2022/10/10 13:06:08;;;;;;;7.78;4.63;;;;;;;;;;4926689;28;20040;-84
2022/10/10 13:08:36;;;;;;;9.38;4.97;;;;;;;;;;4935521;28;20028;-84
2022/10/10 13:11:07;;;;;;;10.88;5.35;;;;;;;;;;4933392;28;20528;-84
2022/10/10 13:13:34;;;;;;;9.98;5.20;;;;;;;;;;4948016;28;20058;-84
2022/10/10 13:16:12;;;;;;;9.93;5.55;;;;;;;;;;4934893;28;20053;-83
2022/10/10 13:18:40;;;;;;;9.82;4.65;;;;;;;;;;4965540;28;20031;-83
2022/10/10 13:21:09;;;;;;;12.23;5.30;;;;;;;;;;4948284;28;20073;-84
2022/10/10 13:23:39;;;;;;;9.70;5.32;;;;;;;;;;4938987;28;20027;-83
2022/10/10 13:26:05;;;;;;;9.35;5.15;;;;;;;;;;4946408;28;20492;-84
2022/10/10 13:28:30;;;;;;;9.57;4.80;;;;;;;;;;4932367;28;20027;-84
2022/10/10 13:30:56;;;;;;;10.25;5.07;;;;;;;;;;4933950;28;20510;-84
2022/10/10 13:33:27;;;;;;;14.00;5.05;;;;;;;;;;4954338;28;20118;-84
2022/10/10 13:35:52;;;;;;;11.43;4.97;;;;;;;;;;4932535;28;20102;-84
2022/10/10 13:38:24;;;;;;;9.05;4.90;;;;;;;;;;4935620;28;20074;-83
2022/10/10 13:40:50;;;;;;;9.75;5.50;;;;;;;;;;4939728;28;20050;-84
2022/10/10 13:43:18;;;;;;;10.35;5.20;;;;;;;;;;4950482;28;20126;-84
2022/10/10 13:45:46;;;;;;;8.38;5.03;;;;;;;;;;4920792;28;20104;-84
2022/10/10 13:48:18;;;;;;;7.68;4.68;;;;;;;;;;4933786;28;20038;-84
2022/10/10 13:50:44;;;;;;;10.23;5.70;;;;;;;;;;4951022;28;20387;-84
2022/10/10 13:53:28;;;;;;;10.30;5.72;;;;;;;;;;4947448;28;20281;-84
2022/10/10 13:55:59;;;;;;;7.78;5.18;;;;;;;;;;4948129;28;20038;-84
2022/10/10 13:58:28;;;;;;;6.88;5.05;;;;;;;;;;4948649;28;20066;-84
2022/10/10 14:01:01;;;;;;;9.07;5.38;;;;;;;;;;4938028;28;20587;-84
2022/10/10 14:03:28;;;;;;;9.82;5.00;;;;;;;;;;4937443;28;20547;-84
2022/10/10 14:05:54;;;;;;;9.35;4.85;;;;;;;;;;4949580;28;20091;-83
2022/10/10 14:08:26;;;;;;;8.52;5.05;;;;;;;;;;4934650;28;20042;-85
2022/10/10 14:10:58;;;;;;;9.50;5.32;;;;;;;;;;4938357;28;20045;-83
2022/10/10 14:13:24;;;;;;;11.70;5.00;;;;;;;;;;4937513;28;20030;-83
2022/10/10 14:15:50;;;;;;;7.88;5.22;;;;;;;;;;4953331;28;20027;-83
2022/10/10 14:18:19;;;;;;;9.30;5.30;;;;;;;;;;4918387;28;20656;-83
2022/10/10 14:20:46;;;;;;;9.85;4.47;;;;;;;;;;4934964;29;20027;-83
2022/10/10 14:23:12;;;;;;;5.85;3.50;;;;;;;;;;4931454;28;20506;-83
2022/10/10 14:25:39;;;;;;;7.82;4.07;;;;;;;;;;4930153;29;20399;-83
2022/10/10 14:28:05;;;;;;;7.50;3.90;;;;;;;;;;4925279;28;20042;-83
2022/10/10 14:30:38;;;;;;;6.03;3.60;;;;;;;;;;4951458;28;20023;-83
2022/10/10 14:33:12;;;;;;;6.50;3.53;;;;;;;;;;4949573;28;20075;-83
2022/10/10 14:35:38;;;;;;;6.32;2.70;;;;;;;;;;4967391;28;20015;-83
2022/10/10 14:38:04;;;;;;;3.53;2.10;;;;;;;;;;4934475;28;20035;-83
2022/10/10 14:40:30;;;;;;;3.20;1.88;;;;;;;;;;4935981;28;20046;-82
2022/10/10 14:42:56;;;;;;;2.90;1.10;;;;;;;;;;4935706;28;20138;-82
2022/10/10 14:45:21;;;;;;;1.55;0.70;;;;;;;;;;4948149;28;20114;-82
2022/10/10 14:47:47;;;;;;;0.55;0.40;;;;;;;;;;4954124;28;20491;-83
2022/10/10 14:50:16;;;;;;;1.00;0.60;;;;;;;;;;4956226;28;20023;-83
2022/10/10 14:52:41;;;;;;;1.45;0.40;;;;;;;;;;4937969;28;20023;-82
2022/10/10 14:55:08;;;;;;;0.75;0.47;;;;;;;;;;4953305;28;20033;-82
2022/10/10 14:57:34;;;;;;;0.40;0.40;;;;;;;;;;4934917;29;20410;-82
2022/10/10 14:59:59;;;;;;;1.05;0.50;;;;;;;;;;4944888;28;20027;-83
2022/10/10 15:02:25;;;;;;;0.70;0.38;;;;;;;;;;4930922;29;20039;-83
2022/10/10 15:04:51;;;;;;;0.88;0.35;;;;;;;;;;4936606;28;20500;-84